Time;durP1;ratioP1;P1;durP2;ratioP2;P2;SDS_P1;SDS_P2;PMS_P1;PMS_P2;Temp;Humidity;BMP_temperature;BMP_pressure;BME280_temperature;BME280_humidity;BME280_pressure;Samples;Min_cycle;Max_cycle;Signal;HPM_P1;HPM_P2
2022/05/07 00:00:36;;;;;;;19.35;11.88;;;;;;;;;;5011182;28;20041;-73
2022/05/07 00:03:02;;;;;;;17.73;9.60;;;;;;;;;;5012860;28;20045;-73
2022/05/07 00:05:28;;;;;;;18.80;9.50;;;;;;;;;;5016755;28;20359;-73
2022/05/07 00:07:54;;;;;;;15.00;9.60;;;;;;;;;;5012957;28;20033;-74
2022/05/07 00:10:20;;;;;;;11.80;9.18;;;;;;;;;;5016350;28;20055;-73
2022/05/07 00:12:46;;;;;;;12.65;8.40;;;;;;;;;;5015491;28;20030;-74
2022/05/07 00:15:12;;;;;;;12.70;8.40;;;;;;;;;;5009271;28;20850;-73
2022/05/07 00:20:24;;;;;;;14.75;9.30;;;;;;;;;;5007078;28;20033;-73
2022/05/07 00:22:50;;;;;;;11.27;7.80;;;;;;;;;;5010819;28;20045;-73
2022/05/07 00:25:16;;;;;;;12.50;8.73;;;;;;;;;;5015959;28;20042;-73
2022/05/07 00:27:42;;;;;;;14.52;7.90;;;;;;;;;;5013772;28;20092;-73
2022/05/07 00:30:08;;;;;;;11.10;8.60;;;;;;;;;;5016638;28;20072;-74
2022/05/07 00:32:34;;;;;;;9.63;7.50;;;;;;;;;;5008491;28;20643;-73
2022/05/07 00:35:01;;;;;;;10.75;8.05;;;;;;;;;;5018149;28;20026;-74
2022/05/07 00:37:27;;;;;;;10.20;6.88;;;;;;;;;;5010368;28;20093;-73
2022/05/07 00:39:53;;;;;;;10.35;6.80;;;;;;;;;;5015801;28;20034;-73
2022/05/07 00:42:22;;;;;;;10.30;6.72;;;;;;;;;;5007728;28;20038;-74
2022/05/07 00:44:48;;;;;;;12.52;7.40;;;;;;;;;;5016414;28;20037;-73
2022/05/07 00:47:23;;;;;;;12.85;7.97;;;;;;;;;;5012451;28;20075;-73
2022/05/07 00:49:51;;;;;;;13.07;6.60;;;;;;;;;;5018096;28;20053;-74
2022/05/07 00:52:18;;;;;;;9.50;7.07;;;;;;;;;;5013190;28;20034;-73
2022/05/07 00:54:45;;;;;;;11.45;7.45;;;;;;;;;;5020062;28;20768;-73
2022/05/07 00:57:12;;;;;;;8.93;7.30;;;;;;;;;;5016846;28;20033;-73
2022/05/07 00:59:39;;;;;;;12.30;7.35;;;;;;;;;;5013607;28;20034;-73
2022/05/07 01:02:05;;;;;;;10.60;6.60;;;;;;;;;;5018099;28;20507;-73
2022/05/07 01:04:31;;;;;;;8.15;6.63;;;;;;;;;;5013811;28;20041;-74
2022/05/07 01:06:57;;;;;;;11.00;7.45;;;;;;;;;;5018826;28;20518;-73
2022/05/07 01:09:24;;;;;;;11.75;7.80;;;;;;;;;;5010059;28;20887;-74
2022/05/07 01:11:51;;;;;;;10.45;6.20;;;;;;;;;;5019758;28;20041;-73
2022/05/07 01:14:17;;;;;;;17.45;7.95;;;;;;;;;;5017285;28;20038;-73
2022/05/07 01:16:43;;;;;;;10.77;8.13;;;;;;;;;;5017465;28;20029;-73
2022/05/07 01:19:09;;;;;;;9.05;6.57;;;;;;;;;;5013388;28;20065;-74
2022/05/07 01:21:35;;;;;;;11.55;7.93;;;;;;;;;;5016182;28;20394;-74
2022/05/07 01:24:01;;;;;;;9.75;7.53;;;;;;;;;;5016219;28;20060;-73
2022/05/07 01:26:27;;;;;;;9.73;7.55;;;;;;;;;;5014467;28;20076;-73
2022/05/07 01:29:07;;;;;;;10.73;7.60;;;;;;;;;;5019993;28;20145;-73
2022/05/07 01:31:34;;;;;;;11.25;8.18;;;;;;;;;;5017275;28;20099;-73
2022/05/07 01:34:00;;;;;;;10.10;7.60;;;;;;;;;;5014008;28;20046;-73
2022/05/07 01:36:26;;;;;;;9.20;6.53;;;;;;;;;;5018086;28;20113;-73
2022/05/07 01:38:52;;;;;;;10.15;7.38;;;;;;;;;;5018250;28;20120;-74
2022/05/07 01:41:18;;;;;;;13.27;9.23;;;;;;;;;;5021780;28;20029;-73
2022/05/07 01:43:44;;;;;;;12.70;8.57;;;;;;;;;;5017194;28;20614;-73
2022/05/07 01:48:55;;;;;;;17.58;11.55;;;;;;;;;;5012934;28;20076;-73
2022/05/07 01:51:21;;;;;;;12.07;9.40;;;;;;;;;;5013068;28;20829;-73
2022/05/07 01:53:48;;;;;;;14.43;10.73;;;;;;;;;;5017638;28;20121;-73
2022/05/07 01:56:14;;;;;;;18.70;12.23;;;;;;;;;;5017907;28;20038;-73
2022/05/07 01:58:40;;;;;;;21.08;14.50;;;;;;;;;;5016226;28;20030;-73
2022/05/07 02:01:06;;;;;;;18.17;13.57;;;;;;;;;;5020592;28;20045;-74
2022/05/07 02:03:32;;;;;;;17.02;14.23;;;;;;;;;;5016000;28;20033;-73
2022/05/07 02:05:58;;;;;;;24.75;19.85;;;;;;;;;;5018846;28;20112;-74
2022/05/07 02:08:24;;;;;;;24.63;21.92;;;;;;;;;;5008853;28;20121;-73
2022/05/07 02:10:50;;;;;;;22.55;20.15;;;;;;;;;;5018293;28;20710;-73
2022/05/07 02:13:16;;;;;;;16.25;14.40;;;;;;;;;;5015807;28;20030;-73
2022/05/07 02:15:42;;;;;;;16.63;11.63;;;;;;;;;;5013048;28;20045;-73
2022/05/07 02:18:08;;;;;;;18.42;10.90;;;;;;;;;;5015332;28;20030;-73
2022/05/07 02:20:34;;;;;;;15.68;11.98;;;;;;;;;;5016019;28;20421;-73
2022/05/07 02:23:00;;;;;;;14.95;12.98;;;;;;;;;;5015233;28;20037;-73
2022/05/07 02:25:26;;;;;;;19.23;13.63;;;;;;;;;;5010769;28;20038;-74
2022/05/07 02:27:53;;;;;;;16.25;13.25;;;;;;;;;;5020826;28;20034;-73
2022/05/07 02:30:19;;;;;;;20.85;14.20;;;;;;;;;;5015675;28;20025;-73
2022/05/07 02:32:48;;;;;;;20.15;12.63;;;;;;;;;;5015774;28;20080;-73
2022/05/07 02:35:14;;;;;;;19.60;12.65;;;;;;;;;;5008102;28;20109;-74
2022/05/07 02:37:41;;;;;;;16.23;12.57;;;;;;;;;;5017193;28;20029;-73
2022/05/07 02:40:07;;;;;;;19.23;14.05;;;;;;;;;;5016346;28;20044;-73
2022/05/07 02:42:33;;;;;;;17.42;14.68;;;;;;;;;;5021412;28;20032;-73
2022/05/07 02:45:01;;;;;;;17.25;12.65;;;;;;;;;;5014514;28;20137;-73
2022/05/07 02:47:28;;;;;;;16.45;13.85;;;;;;;;;;5019408;28;20083;-73
2022/05/07 02:49:54;;;;;;;16.75;12.43;;;;;;;;;;5013578;28;20042;-73
2022/05/07 02:52:20;;;;;;;20.60;13.07;;;;;;;;;;5014074;28;20038;-73
2022/05/07 02:54:46;;;;;;;16.58;13.88;;;;;;;;;;5002838;28;20025;-73
2022/05/07 02:57:12;;;;;;;22.13;15.20;;;;;;;;;;5018163;28;20119;-73
2022/05/07 02:59:41;;;;;;;20.35;15.38;;;;;;;;;;5015705;28;20025;-73
2022/05/07 03:02:08;;;;;;;19.17;15.23;;;;;;;;;;5015594;28;20111;-73
2022/05/07 03:04:34;;;;;;;21.75;16.08;;;;;;;;;;5014690;28;20263;-73
2022/05/07 03:07:01;;;;;;;16.77;15.02;;;;;;;;;;5008249;28;20462;-73
2022/05/07 03:09:27;;;;;;;19.38;15.48;;;;;;;;;;5017124;28;20466;-73
2022/05/07 03:11:53;;;;;;;18.90;14.80;;;;;;;;;;5014890;28;20120;-73
2022/05/07 03:14:19;;;;;;;17.55;14.75;;;;;;;;;;5020492;28;20026;-74
2022/05/07 03:16:47;;;;;;;16.85;11.93;;;;;;;;;;5013244;28;20045;-73
2022/05/07 03:19:13;;;;;;;20.88;12.57;;;;;;;;;;5018444;28;20057;-74
2022/05/07 03:21:39;;;;;;;18.20;13.15;;;;;;;;;;5017736;28;20041;-74
2022/05/07 03:24:05;;;;;;;12.48;9.52;;;;;;;;;;5024096;28;20033;-73
2022/05/07 03:26:31;;;;;;;13.65;9.05;;;;;;;;;;5010989;28;20060;-73
2022/05/07 03:28:57;;;;;;;12.57;8.57;;;;;;;;;;5016688;28;20771;-73
2022/05/07 03:31:23;;;;;;;14.13;10.65;;;;;;;;;;5011621;28;20073;-73
2022/05/07 03:33:49;;;;;;;18.23;11.38;;;;;;;;;;5012649;28;20072;-73
2022/05/07 03:36:15;;;;;;;16.80;10.38;;;;;;;;;;5014694;28;20836;-74
2022/05/07 03:38:42;;;;;;;14.75;10.00;;;;;;;;;;5015211;28;20036;-73
2022/05/07 03:41:08;;;;;;;10.30;8.20;;;;;;;;;;5014954;28;20045;-73
2022/05/07 03:43:37;;;;;;;14.15;9.52;;;;;;;;;;5010741;28;20287;-73
2022/05/07 03:46:03;;;;;;;17.60;13.50;;;;;;;;;;5012697;28;20064;-73
2022/05/07 03:48:29;;;;;;;17.70;12.18;;;;;;;;;;5013323;28;20041;-73
2022/05/07 03:50:55;;;;;;;19.33;13.43;;;;;;;;;;5015443;28;20043;-73
2022/05/07 03:53:31;;;;;;;19.25;13.50;;;;;;;;;;5015550;28;20057;-73
2022/05/07 03:56:00;;;;;;;21.52;15.52;;;;;;;;;;5014260;28;20034;-73
2022/05/07 03:58:26;;;;;;;17.88;14.30;;;;;;;;;;5013346;28;20064;-73
2022/05/07 04:00:53;;;;;;;18.23;13.50;;;;;;;;;;5017759;28;20045;-73
2022/05/07 04:03:20;;;;;;;18.08;14.75;;;;;;;;;;5014415;28;20060;-73
2022/05/07 04:05:46;;;;;;;19.20;15.27;;;;;;;;;;5017906;28;20132;-73
2022/05/07 04:08:12;;;;;;;16.88;13.40;;;;;;;;;;5014630;28;20474;-73
2022/05/07 04:10:39;;;;;;;18.88;14.65;;;;;;;;;;5019549;28;20038;-73
2022/05/07 04:13:05;;;;;;;18.30;13.50;;;;;;;;;;5014191;28;20025;-73
2022/05/07 04:15:32;;;;;;;20.05;13.00;;;;;;;;;;5019342;28;20640;-74
2022/05/07 04:17:58;;;;;;;20.38;12.55;;;;;;;;;;5015804;28;20691;-73
2022/05/07 04:20:24;;;;;;;17.17;12.90;;;;;;;;;;5014556;28;20896;-73
2022/05/07 04:22:50;;;;;;;14.38;12.35;;;;;;;;;;5019336;28;20856;-73
2022/05/07 04:25:16;;;;;;;16.08;11.48;;;;;;;;;;5012175;28;20041;-73
2022/05/07 04:27:42;;;;;;;15.75;11.85;;;;;;;;;;5011089;28;20125;-73
2022/05/07 04:30:09;;;;;;;21.20;11.65;;;;;;;;;;5012374;28;20121;-73
2022/05/07 04:32:35;;;;;;;18.15;11.73;;;;;;;;;;5015206;28;20052;-73
2022/05/07 04:35:02;;;;;;;14.68;9.88;;;;;;;;;;5014787;28;20041;-74
2022/05/07 04:37:28;;;;;;;14.98;9.90;;;;;;;;;;5013722;28;20125;-73
2022/05/07 04:39:54;;;;;;;16.42;10.13;;;;;;;;;;5013854;28;20076;-74
2022/05/07 04:42:20;;;;;;;14.02;8.50;;;;;;;;;;5016317;28;20839;-73
2022/05/07 04:44:46;;;;;;;12.23;8.75;;;;;;;;;;5011348;28;20053;-73
2022/05/07 04:47:12;;;;;;;11.80;8.90;;;;;;;;;;5014046;28;20640;-73
2022/05/07 04:49:38;;;;;;;13.35;9.65;;;;;;;;;;5018910;28;20108;-73
2022/05/07 04:52:05;;;;;;;12.82;8.90;;;;;;;;;;5018269;28;20680;-73
2022/05/07 04:54:32;;;;;;;13.77;9.30;;;;;;;;;;5017815;28;20028;-73
2022/05/07 04:56:58;;;;;;;15.50;10.75;;;;;;;;;;5014447;28;20037;-73
2022/05/07 04:59:24;;;;;;;12.68;10.40;;;;;;;;;;5018678;28;20475;-73
2022/05/07 05:01:50;;;;;;;14.65;9.90;;;;;;;;;;5020511;28;20045;-73
2022/05/07 05:04:16;;;;;;;14.27;10.43;;;;;;;;;;5019903;28;20030;-74
2022/05/07 05:06:42;;;;;;;17.88;11.20;;;;;;;;;;5012030;28;20029;-73
2022/05/07 05:09:09;;;;;;;15.95;10.60;;;;;;;;;;5023001;28;20375;-73
2022/05/07 05:11:35;;;;;;;14.60;10.63;;;;;;;;;;5018783;28;20041;-73
2022/05/07 05:14:01;;;;;;;14.25;10.50;;;;;;;;;;5022718;28;20421;-73
2022/05/07 05:16:27;;;;;;;15.27;10.52;;;;;;;;;;5014629;28;20033;-73
2022/05/07 05:18:53;;;;;;;16.20;11.18;;;;;;;;;;5017130;28;20137;-74
2022/05/07 05:21:19;;;;;;;16.80;12.98;;;;;;;;;;5017360;28;20041;-73
2022/05/07 05:23:46;;;;;;;12.43;10.32;;;;;;;;;;5017285;28;20080;-73
2022/05/07 05:26:16;;;;;;;13.70;10.68;;;;;;;;;;5015485;28;20149;-73
2022/05/07 05:28:43;;;;;;;14.15;10.30;;;;;;;;;;5019808;28;20085;-73
2022/05/07 05:31:09;;;;;;;16.60;9.68;;;;;;;;;;5017246;28;20933;-73
2022/05/07 05:33:35;;;;;;;12.20;9.95;;;;;;;;;;5010990;28;20053;-73
2022/05/07 05:36:01;;;;;;;12.73;9.82;;;;;;;;;;5017166;28;20463;-74
2022/05/07 05:38:27;;;;;;;11.45;9.35;;;;;;;;;;5017025;28;20107;-73
2022/05/07 05:40:53;;;;;;;15.52;10.10;;;;;;;;;;5019960;28;20045;-73
2022/05/07 05:43:19;;;;;;;14.15;10.68;;;;;;;;;;5014889;28;20038;-73
2022/05/07 05:45:46;;;;;;;14.60;10.52;;;;;;;;;;5018701;28;20383;-73
2022/05/07 05:48:13;;;;;;;14.45;12.50;;;;;;;;;;5013015;28;20479;-74
2022/05/07 05:50:39;;;;;;;17.00;13.10;;;;;;;;;;5017016;28;20037;-73
2022/05/07 05:53:06;;;;;;;17.02;12.45;;;;;;;;;;5016749;28;20041;-73
2022/05/07 05:55:33;;;;;;;18.75;11.75;;;;;;;;;;5020584;28;20037;-73
2022/05/07 05:57:59;;;;;;;19.90;14.93;;;;;;;;;;5019813;28;20051;-73
2022/05/07 06:00:25;;;;;;;18.10;14.50;;;;;;;;;;5016063;28;20026;-73
2022/05/07 06:02:51;;;;;;;15.40;13.75;;;;;;;;;;5016643;28;20038;-73
2022/05/07 06:05:17;;;;;;;15.25;13.43;;;;;;;;;;5014936;28;20116;-73
2022/05/07 06:07:43;;;;;;;16.38;12.95;;;;;;;;;;5007914;28;20034;-74
2022/05/07 06:10:09;;;;;;;15.40;11.98;;;;;;;;;;5007075;28;20037;-73
2022/05/07 06:12:35;;;;;;;16.65;11.35;;;;;;;;;;5009411;28;20026;-73
2022/05/07 06:15:01;;;;;;;16.75;9.60;;;;;;;;;;5010974;28;20129;-73
2022/05/07 06:17:27;;;;;;;15.50;10.63;;;;;;;;;;5004608;28;20034;-73
2022/05/07 06:19:54;;;;;;;14.80;11.35;;;;;;;;;;5000750;28;20053;-74
2022/05/07 06:22:20;;;;;;;15.48;11.27;;;;;;;;;;5008904;28;20042;-74
2022/05/07 06:27:31;;;;;;;16.40;10.82;;;;;;;;;;5012861;28;20056;-74
2022/05/07 06:30:07;;;;;;;14.48;10.23;;;;;;;;;;5017288;28;20025;-73
2022/05/07 06:32:36;;;;;;;14.43;10.60;;;;;;;;;;5016153;28;20040;-74
2022/05/07 06:35:03;;;;;;;15.65;11.82;;;;;;;;;;5008547;28;20133;-73
2022/05/07 06:37:30;;;;;;;16.90;11.27;;;;;;;;;;5011037;28;20048;-74
2022/05/07 06:39:56;;;;;;;16.75;10.25;;;;;;;;;;5009845;28;20030;-74
2022/05/07 06:42:22;;;;;;;12.63;10.13;;;;;;;;;;5008617;28;20443;-74
2022/05/07 06:44:48;;;;;;;15.77;9.80;;;;;;;;;;5006005;28;20497;-73
2022/05/07 06:47:17;;;;;;;15.77;8.98;;;;;;;;;;5013245;28;20349;-73
2022/05/07 06:49:43;;;;;;;14.52;8.20;;;;;;;;;;5009806;28;20029;-74
2022/05/07 06:52:10;;;;;;;12.25;8.38;;;;;;;;;;5007381;28;20029;-74
2022/05/07 06:54:36;;;;;;;14.88;9.30;;;;;;;;;;5007884;28;20119;-74
2022/05/07 06:57:05;;;;;;;14.18;8.82;;;;;;;;;;5007111;28;20829;-74
2022/05/07 06:59:32;;;;;;;11.60;8.35;;;;;;;;;;5006735;28;20045;-74
2022/05/07 07:01:58;;;;;;;13.15;9.43;;;;;;;;;;5010308;28;20026;-75
2022/05/07 07:04:24;;;;;;;11.38;8.50;;;;;;;;;;5006666;28;20065;-74
2022/05/07 07:06:50;;;;;;;9.95;8.05;;;;;;;;;;5005976;28;20125;-75
2022/05/07 07:09:17;;;;;;;14.10;7.60;;;;;;;;;;5006916;28;20072;-74
2022/05/07 07:11:43;;;;;;;9.57;6.72;;;;;;;;;;5005184;28;20030;-75
2022/05/07 07:14:09;;;;;;;10.15;6.63;;;;;;;;;;5008347;28;20072;-74
2022/05/07 07:16:35;;;;;;;11.68;6.68;;;;;;;;;;5008080;28;20021;-75
2022/05/07 07:19:01;;;;;;;11.07;7.97;;;;;;;;;;5006696;28;20133;-74
2022/05/07 07:21:27;;;;;;;10.93;7.55;;;;;;;;;;5007061;28;20041;-74
2022/05/07 07:23:54;;;;;;;9.15;7.65;;;;;;;;;;5005586;28;20136;-75
2022/05/07 07:26:20;;;;;;;12.55;7.82;;;;;;;;;;5012852;28;20464;-75
2022/05/07 07:28:47;;;;;;;12.27;7.60;;;;;;;;;;5007484;28;20600;-76
2022/05/07 07:31:13;;;;;;;12.38;7.22;;;;;;;;;;5008815;28;20061;-75
2022/05/07 07:33:41;;;;;;;13.45;7.32;;;;;;;;;;5004440;28;20738;-74
2022/05/07 07:36:08;;;;;;;10.95;6.40;;;;;;;;;;5005220;28;20030;-75
2022/05/07 07:38:35;;;;;;;13.73;7.88;;;;;;;;;;5005432;28;20088;-75
2022/05/07 07:41:02;;;;;;;7.53;6.00;;;;;;;;;;5006065;28;20124;-75
2022/05/07 07:43:29;;;;;;;8.52;5.70;;;;;;;;;;5008524;28;20066;-74
2022/05/07 07:48:40;;;;;;;7.78;5.57;;;;;;;;;;5009577;28;20157;-75
2022/05/07 07:51:07;;;;;;;7.40;4.93;;;;;;;;;;5012549;28;20468;-74
2022/05/07 07:53:33;;;;;;;9.30;5.72;;;;;;;;;;5008223;28;20050;-74
2022/05/07 07:55:59;;;;;;;10.32;5.63;;;;;;;;;;5007988;28;20025;-74
2022/05/07 07:58:25;;;;;;;8.80;5.18;;;;;;;;;;5007546;28;20033;-75
2022/05/07 08:00:51;;;;;;;7.80;4.72;;;;;;;;;;5010861;28;20041;-75
2022/05/07 08:03:18;;;;;;;5.63;4.10;;;;;;;;;;5009942;28;20058;-75
2022/05/07 08:05:46;;;;;;;8.60;4.13;;;;;;;;;;5010998;28;20040;-75
2022/05/07 08:13:43;;;;;;;6.10;3.83;;;;;;;;;;5007043;28;20049;-74
2022/05/07 08:16:09;;;;;;;5.78;3.92;;;;;;;;;;5009744;28;20462;-74
2022/05/07 08:18:36;;;;;;;7.97;4.72;;;;;;;;;;5006373;28;20060;-74
2022/05/07 08:21:02;;;;;;;6.70;4.88;;;;;;;;;;5013742;28;20041;-74
2022/05/07 08:23:28;;;;;;;6.72;4.82;;;;;;;;;;5010319;28;20038;-75
2022/05/07 08:25:55;;;;;;;6.75;4.32;;;;;;;;;;5009992;28;20061;-74
2022/05/07 08:28:24;;;;;;;6.13;4.40;;;;;;;;;;5012010;28;20037;-75
2022/05/07 08:30:50;;;;;;;7.10;4.60;;;;;;;;;;5015348;28;20033;-74
2022/05/07 08:33:19;;;;;;;6.80;4.15;;;;;;;;;;5011993;28;20034;-74
2022/05/07 08:35:45;;;;;;;6.25;4.18;;;;;;;;;;5013053;28;20049;-74
2022/05/07 08:38:11;;;;;;;5.72;4.25;;;;;;;;;;5010827;28;20041;-74
2022/05/07 08:40:38;;;;;;;5.45;4.20;;;;;;;;;;5012341;28;20042;-75
2022/05/07 08:43:05;;;;;;;5.45;3.85;;;;;;;;;;5011586;28;20470;-75
2022/05/07 08:45:31;;;;;;;7.78;4.63;;;;;;;;;;5015681;28;20145;-74
2022/05/07 08:47:57;;;;;;;7.55;4.88;;;;;;;;;;5020780;28;20033;-74
2022/05/07 08:50:23;;;;;;;7.65;4.57;;;;;;;;;;5013998;28;20064;-75
2022/05/07 08:52:49;;;;;;;7.75;4.72;;;;;;;;;;5013795;28;20037;-74
2022/05/07 08:55:19;;;;;;;6.43;4.00;;;;;;;;;;5013183;28;20033;-74
2022/05/07 08:57:47;;;;;;;7.30;4.00;;;;;;;;;;5009913;28;20034;-74
2022/05/07 09:00:14;;;;;;;5.30;3.92;;;;;;;;;;5011885;28;20124;-74
2022/05/07 09:02:42;;;;;;;7.50;4.43;;;;;;;;;;5016708;28;20037;-74
2022/05/07 09:05:08;;;;;;;6.00;4.07;;;;;;;;;;5011002;28;20034;-75
2022/05/07 09:07:35;;;;;;;6.15;4.22;;;;;;;;;;5007201;28;20034;-75
2022/05/07 09:10:01;;;;;;;8.02;4.45;;;;;;;;;;5010843;28;20112;-74
2022/05/07 09:12:28;;;;;;;6.55;4.35;;;;;;;;;;5008790;28;20042;-74
2022/05/07 09:14:55;;;;;;;6.32;4.32;;;;;;;;;;5010305;28;20048;-74
2022/05/07 09:17:21;;;;;;;6.07;4.22;;;;;;;;;;5012722;28;20050;-74
2022/05/07 09:19:47;;;;;;;6.50;3.72;;;;;;;;;;5010715;28;20026;-74
2022/05/07 09:22:14;;;;;;;8.98;3.50;;;;;;;;;;5012835;28;20499;-74
2022/05/07 09:24:40;;;;;;;7.57;3.72;;;;;;;;;;5007447;28;20073;-75
2022/05/07 09:27:08;;;;;;;4.57;3.30;;;;;;;;;;5014457;28;20667;-75
2022/05/07 09:29:34;;;;;;;5.07;3.10;;;;;;;;;;5011004;28;20034;-75
2022/05/07 09:32:07;;;;;;;8.02;3.47;;;;;;;;;;5008004;28;20576;-75
2022/05/07 09:37:22;;;;;;;15.43;5.25;;;;;;;;;;4993809;28;20045;-75
2022/05/07 09:39:50;;;;;;;7.53;3.80;;;;;;;;;;5008974;28;20037;-74
2022/05/07 09:42:17;;;;;;;9.02;4.13;;;;;;;;;;5010264;28;20041;-74
2022/05/07 09:44:44;;;;;;;7.95;3.63;;;;;;;;;;5011530;28;20072;-74
2022/05/07 09:47:12;;;;;;;7.45;3.83;;;;;;;;;;5009266;28;20041;-74
2022/05/07 09:50:19;;;;;;;6.43;3.97;;;;;;;;;;5012024;28;20034;-74
2022/05/07 09:52:26;;;;;;;3.70;2.67;;;;;;;;;;5013481;28;20049;-74
2022/05/07 09:57:38;;;;;;;4.97;3.15;;;;;;;;;;5007454;28;20084;-74
2022/05/07 10:00:08;;;;;;;5.45;3.20;;;;;;;;;;5015715;28;20044;-74
2022/05/07 10:02:46;;;;;;;8.48;3.50;;;;;;;;;;5013105;28;20033;-74
2022/05/07 10:05:18;;;;;;;4.20;2.90;;;;;;;;;;5009029;28;20044;-74
2022/05/07 10:07:43;;;;;;;;;;;;;;;;;;4999149;28;20040;-74
2022/05/07 10:10:35;;;;;;;6.45;3.40;;;;;;;;;;5011739;28;19917;-74
2022/05/07 10:13:02;;;;;;;6.18;3.30;;;;;;;;;;5013692;28;20049;-74
2022/05/07 10:15:28;;;;;;;5.55;3.72;;;;;;;;;;5017472;28;20029;-73
2022/05/07 10:18:16;;;;;;;8.75;3.38;;;;;;;;;;5017166;28;20850;-73
2022/05/07 10:20:44;;;;;;;6.68;2.95;;;;;;;;;;5009760;28;20896;-73
2022/05/07 10:23:14;;;;;;;5.70;3.10;;;;;;;;;;5009734;28;20817;-73
2022/05/07 10:25:41;;;;;;;6.70;3.40;;;;;;;;;;5011007;28;20066;-73
2022/05/07 10:28:11;;;;;;;5.90;3.55;;;;;;;;;;5007057;28;20559;-73
2022/05/07 10:30:49;;;;;;;4.43;2.67;;;;;;;;;;5016987;28;20037;-73
2022/05/07 10:33:15;;;;;;;4.63;3.13;;;;;;;;;;5007235;28;20042;-74
2022/05/07 10:35:45;;;;;;;6.32;3.17;;;;;;;;;;5014509;28;20030;-74
2022/05/07 10:38:11;;;;;;;5.25;3.08;;;;;;;;;;5006639;28;20032;-74
2022/05/07 10:40:38;;;;;;;4.70;3.08;;;;;;;;;;5006645;28;20474;-74
2022/05/07 10:43:04;;;;;;;5.80;3.17;;;;;;;;;;5004435;28;20045;-74
2022/05/07 10:45:43;;;;;;;5.20;3.08;;;;;;;;;;5012432;28;20051;-74
2022/05/07 10:48:18;;;;;;;6.25;3.17;;;;;;;;;;5005654;28;20073;-74
2022/05/07 10:50:51;;;;;;;6.68;3.08;;;;;;;;;;5009484;28;20038;-74
2022/05/07 10:53:18;;;;;;;4.53;2.90;;;;;;;;;;5012492;28;20041;-74
2022/05/07 10:55:44;;;;;;;5.68;3.35;;;;;;;;;;5011997;28;20025;-74
2022/05/07 10:58:10;;;;;;;6.65;3.97;;;;;;;;;;5012523;28;20044;-74
2022/05/07 11:00:36;;;;;;;5.25;3.30;;;;;;;;;;5011951;28;20069;-74
2022/05/07 11:03:02;;;;;;;8.35;4.03;;;;;;;;;;5009395;28;20042;-74
2022/05/07 11:05:30;;;;;;;4.45;2.78;;;;;;;;;;5014208;28;20044;-74
2022/05/07 11:08:00;;;;;;;5.90;3.08;;;;;;;;;;5013283;28;20030;-74
2022/05/07 11:10:26;;;;;;;5.68;3.22;;;;;;;;;;5011652;28;20029;-74
2022/05/07 11:12:52;;;;;;;5.43;3.05;;;;;;;;;;5013339;28;20026;-74
2022/05/07 11:15:25;;;;;;;4.72;3.25;;;;;;;;;;5007971;28;20049;-74
2022/05/07 11:17:51;;;;;;;4.43;2.70;;;;;;;;;;5011459;28;21325;-74
2022/05/07 11:20:31;;;;;;;3.75;2.50;;;;;;;;;;5011391;28;20132;-73
2022/05/07 11:23:01;;;;;;;5.70;3.47;;;;;;;;;;5011410;28;20034;-74
2022/05/07 11:25:28;;;;;;;9.70;4.53;;;;;;;;;;5010500;28;20037;-74
2022/05/07 11:27:56;;;;;;;5.85;2.38;;;;;;;;;;5013839;28;20734;-74
2022/05/07 11:30:22;;;;;;;5.15;2.70;;;;;;;;;;5009095;28;20034;-74
2022/05/07 11:32:49;;;;;;;3.80;2.55;;;;;;;;;;5008746;28;20116;-74
2022/05/07 11:35:16;;;;;;;3.72;2.28;;;;;;;;;;5008879;28;20029;-74
2022/05/07 11:37:46;;;;;;;4.78;2.47;;;;;;;;;;5011479;28;20037;-74
2022/05/07 11:40:14;;;;;;;5.95;2.78;;;;;;;;;;5007652;28;20030;-74
2022/05/07 11:42:47;;;;;;;10.38;7.38;;;;;;;;;;5011083;28;20912;-74
2022/05/07 11:45:26;;;;;;;5.78;2.97;;;;;;;;;;5006948;28;20125;-74
2022/05/07 11:47:58;;;;;;;5.22;3.10;;;;;;;;;;5008117;28;20045;-74
2022/05/07 11:50:26;;;;;;;5.82;2.00;;;;;;;;;;5014884;28;20091;-74
2022/05/07 11:52:53;;;;;;;5.50;2.20;;;;;;;;;;5007198;28;20061;-74
2022/05/07 11:55:26;;;;;;;5.32;2.88;;;;;;;;;;5007676;28;20061;-74
2022/05/07 11:57:52;;;;;;;4.13;2.00;;;;;;;;;;5003658;28;20424;-74
2022/05/07 12:00:19;;;;;;;3.75;2.20;;;;;;;;;;5015147;28;20025;-74
2022/05/07 12:02:52;;;;;;;3.90;2.10;;;;;;;;;;5010276;28;20137;-74
2022/05/07 12:05:18;;;;;;;5.43;2.00;;;;;;;;;;5008858;28;20041;-74
2022/05/07 12:07:46;;;;;;;4.35;2.53;;;;;;;;;;5006813;28;20379;-74
2022/05/07 12:10:12;;;;;;;6.15;2.20;;;;;;;;;;5011792;28;20033;-74
2022/05/07 12:12:39;;;;;;;4.88;2.10;;;;;;;;;;5012586;28;20468;-74
2022/05/07 12:15:05;;;;;;;5.07;2.10;;;;;;;;;;5008998;28;20483;-74
2022/05/07 12:20:17;;;;;;;4.95;2.10;;;;;;;;;;5010121;28;20064;-74
2022/05/07 12:30:58;;;;;;;4.15;2.30;;;;;;;;;;5009185;28;20037;-74
2022/05/07 12:33:24;;;;;;;4.60;1.85;;;;;;;;;;5016790;28;20067;-74
2022/05/07 12:35:52;;;;;;;5.15;1.92;;;;;;;;;;5012694;28;20137;-74
2022/05/07 12:38:18;;;;;;;4.22;2.25;;;;;;;;;;5007070;28;20038;-74
2022/05/07 12:40:44;;;;;;;5.97;1.92;;;;;;;;;;5008867;28;20529;-74
2022/05/07 12:43:10;;;;;;;4.30;1.73;;;;;;;;;;5010269;28;20072;-74
2022/05/07 12:45:36;;;;;;;6.20;2.10;;;;;;;;;;5011373;28;20649;-74
2022/05/07 12:48:02;;;;;;;3.72;1.90;;;;;;;;;;5006198;28;20057;-74
2022/05/07 12:50:28;;;;;;;5.13;2.08;;;;;;;;;;5006871;28;20038;-74
2022/05/07 12:52:55;;;;;;;4.20;1.67;;;;;;;;;;5008238;28;20042;-74
2022/05/07 12:55:21;;;;;;;4.93;1.85;;;;;;;;;;5015024;28;20371;-74
2022/05/07 12:57:47;;;;;;;4.45;2.30;;;;;;;;;;5012362;28;20053;-74
2022/05/07 13:00:14;;;;;;;3.67;1.75;;;;;;;;;;5010731;28;20456;-74
2022/05/07 13:02:40;;;;;;;3.90;1.77;;;;;;;;;;5008618;28;20045;-74
2022/05/07 13:05:06;;;;;;;9.50;1.63;;;;;;;;;;5006510;28;20117;-74
2022/05/07 13:07:32;;;;;;;3.83;1.70;;;;;;;;;;5006071;28;20042;-74
2022/05/07 13:09:58;;;;;;;4.25;1.98;;;;;;;;;;5014466;28;20144;-74
2022/05/07 13:12:24;;;;;;;4.13;2.00;;;;;;;;;;5015530;28;20585;-74
2022/05/07 13:14:51;;;;;;;4.07;2.05;;;;;;;;;;5016752;28;20072;-74
2022/05/07 13:17:17;;;;;;;5.20;1.73;;;;;;;;;;5016239;28;20135;-74
2022/05/07 13:19:43;;;;;;;4.68;1.95;;;;;;;;;;5014316;28;20889;-74
2022/05/07 13:22:09;;;;;;;5.20;1.90;;;;;;;;;;5016396;28;20042;-74
2022/05/07 13:24:35;;;;;;;3.25;1.67;;;;;;;;;;5012686;28;20080;-74
2022/05/07 13:27:02;;;;;;;4.38;1.75;;;;;;;;;;5015088;28;20042;-74
2022/05/07 13:29:32;;;;;;;4.47;2.13;;;;;;;;;;5013165;28;20029;-74
2022/05/07 13:31:58;;;;;;;3.67;1.73;;;;;;;;;;5019605;28;20045;-74
2022/05/07 13:34:24;;;;;;;5.35;1.70;;;;;;;;;;5016604;28;20038;-74
2022/05/07 13:36:50;;;;;;;7.43;2.20;;;;;;;;;;5012278;28;20076;-74
2022/05/07 13:39:16;;;;;;;6.38;1.85;;;;;;;;;;5009857;28;20029;-74
2022/05/07 13:41:42;;;;;;;5.15;1.90;;;;;;;;;;5005988;28;20132;-74
2022/05/07 13:44:10;;;;;;;3.95;2.05;;;;;;;;;;5012539;28;20030;-74
2022/05/07 13:46:40;;;;;;;5.78;1.83;;;;;;;;;;5015596;28;20144;-74
2022/05/07 13:49:06;;;;;;;3.28;1.60;;;;;;;;;;5010911;28;20558;-74
2022/05/07 13:51:32;;;;;;;5.10;1.73;;;;;;;;;;5009447;28;20042;-74
2022/05/07 13:53:58;;;;;;;3.42;1.92;;;;;;;;;;5009801;28;20080;-74
2022/05/07 13:56:26;;;;;;;3.17;1.70;;;;;;;;;;5011771;28;20033;-74
2022/05/07 13:58:52;;;;;;;4.28;1.65;;;;;;;;;;5012341;28;20113;-74
2022/05/07 14:01:18;;;;;;;6.38;1.77;;;;;;;;;;5011692;28;20030;-74
2022/05/07 14:03:44;;;;;;;2.78;1.48;;;;;;;;;;5013695;28;20137;-74
2022/05/07 14:06:15;;;;;;;5.47;2.10;;;;;;;;;;5010601;28;20053;-74
2022/05/07 14:08:41;;;;;;;3.55;1.70;;;;;;;;;;5009696;28;20069;-74
2022/05/07 14:11:08;;;;;;;3.30;1.70;;;;;;;;;;5011898;28;20371;-74
2022/05/07 14:13:34;;;;;;;3.05;1.70;;;;;;;;;;5015114;28;20026;-74
2022/05/07 14:16:00;;;;;;;3.28;1.50;;;;;;;;;;5014233;28;20120;-74
2022/05/07 14:18:26;;;;;;;3.85;1.88;;;;;;;;;;5011376;28;20048;-74
2022/05/07 14:20:53;;;;;;;6.30;2.22;;;;;;;;;;5012964;28;20115;-74
2022/05/07 14:23:21;;;;;;;8.00;4.70;;;;;;;;;;5014708;28;20089;-74
2022/05/07 14:25:47;;;;;;;2.90;2.00;;;;;;;;;;5007755;28;20034;-74
2022/05/07 14:28:13;;;;;;;5.38;2.28;;;;;;;;;;5011157;28;20052;-74
2022/05/07 14:30:39;;;;;;;4.13;2.30;;;;;;;;;;5010793;28;20025;-74
2022/05/07 14:33:08;;;;;;;4.18;2.33;;;;;;;;;;5012447;28;20593;-74
2022/05/07 14:35:34;;;;;;;5.72;2.35;;;;;;;;;;5015564;28;20076;-74
2022/05/07 14:38:00;;;;;;;3.20;2.20;;;;;;;;;;5014205;28;20033;-74
2022/05/07 14:40:31;;;;;;;5.50;2.38;;;;;;;;;;5009792;28;20944;-74
2022/05/07 14:42:57;;;;;;;6.28;1.98;;;;;;;;;;5006972;28;20049;-74
2022/05/07 14:45:23;;;;;;;4.22;2.30;;;;;;;;;;5010995;28;20156;-74
2022/05/07 14:47:49;;;;;;;7.55;2.90;;;;;;;;;;5017455;28;20042;-74
2022/05/07 14:50:15;;;;;;;4.30;2.45;;;;;;;;;;5012080;28;20052;-74
2022/05/07 14:52:41;;;;;;;4.35;2.50;;;;;;;;;;5010887;28;20037;-74
2022/05/07 14:55:08;;;;;;;4.35;2.17;;;;;;;;;;5010484;28;20056;-74
2022/05/07 14:57:34;;;;;;;4.22;2.25;;;;;;;;;;5012913;28;20037;-74
2022/05/07 15:00:00;;;;;;;4.30;2.17;;;;;;;;;;5013834;28;20034;-74
2022/05/07 15:02:26;;;;;;;6.38;2.20;;;;;;;;;;5007761;28;20108;-74
2022/05/07 15:04:52;;;;;;;6.57;2.33;;;;;;;;;;5007593;28;20144;-74